• Join FlightAware (Why Join?)
  • Login
  • US Flag 
05:44AM EDT


 

Airport Tracker/Info


-or-


 

Live Flight TrackerFlight Track Log ✈ AWE2010 ✈ 21-Jun-2014 ✈ KPHL - KRDU

Flight Track Log - Related Links

Times and Time Zones

All times are in EDT time to prevent confusion due to time zone crossing. See the AWE2010 flight status page for this flight to view local times or setup timezone preferences in your user account.

Time Position Orientation Groundspeed Altitude Reporting Facility
EDT Latitude Longitude Course Direction KTS MPH feet Rate Location/Type
09:41AM 39.8833 -75.2167 180° South 148 170 800  Level Philadelphia TRACON
09:41AM 39.8667 -75.2000 142° Southeast 156 180 1,500 1,740 Climbing Philadelphia TRACON
09:42AM 39.8500 -75.1333 108° East 232 267 3,300 2,160 Climbing Philadelphia TRACON
09:43AM 39.7833 -75.1167 169° South 281 323 5,900 2,700 Climbing Philadelphia TRACON
09:44AM 39.4570 -75.3310 194° South  Level FlightAware Approximate
09:45AM 39.3509 -75.3425 185° South  Level FlightAware Approximate
09:45AM 39.6608 -75.2142 212° Southwest 299 344 11,000  Level Washington Center
09:46AM 39.2470 -75.3667 180° South  Level FlightAware Approximate
09:46AM 39.5692 -75.2442 194° South 317 365 12,900  Level Washington Center
09:47AM 39.4672 -75.2664 190° South 351 404 15,600 1,500 Climbing Washington Center
09:48AM 39.3631 -75.2883 189° South 366 421 15,900 420 Climbing Washington Center
09:49AM 39.2569 -75.3103 189° South 384 442 16,500 1,380 Climbing Washington Center
09:50AM 39.1589 -75.3319 190° South 392 451 18,700 2,100 Climbing Washington Center
09:51AM 39.0506 -75.3592 191° South 397 457 20,700 1,800 Climbing Washington Center
09:52AM 38.9361 -75.3836 189° South 409 471 22,400 1,740 Climbing Washington Center
09:53AM 38.8256 -75.4211 195° South 414 476 24,200 1,680 Climbing Washington Center
09:54AM 38.7214 -75.4906 207° Southwest 419 482 25,800 840 Climbing Washington Center
09:55AM 38.6153 -75.5650 209° Southwest 424 488 26,000 60 Climbing Washington Center
09:56AM 38.5047 -75.6447 209° Southwest 430 495 26,000  Level Washington Center
09:57AM 38.4003 -75.7161 208° Southwest 436 502 26,000  Level Washington Center
09:58AM 38.2939 -75.7875 208° Southwest 431 496 26,000  Level Washington Center
09:59AM 38.1917 -75.8586 209° Southwest 431 496 26,000  Level Washington Center
10:00AM 38.0872 -75.9294 208° Southwest 431 496 26,000  Level Washington Center
10:01AM 37.9847 -76.0028 209° Southwest 431 496 26,000  Level Washington Center
10:02AM 37.8822 -76.0733 209° Southwest 436 502 26,000  Level Washington Center
10:03AM 37.7756 -76.1461 208° Southwest 436 502 26,000  Level Washington Center
10:04AM 37.6711 -76.2161 208° Southwest 441 507 26,000  Level Washington Center
10:05AM 37.5664 -76.2886 209° Southwest 436 502 26,000  Level Washington Center
10:06AM 37.4617 -76.3583 208° Southwest 436 502 26,000 -180 Level Washington Center
10:07AM 37.3569 -76.4281 208° Southwest 436 502 25,700 -1,020 Descending Washington Center
10:08AM 37.2603 -76.5025 212° Southwest 431 496 24,000 -960 Descending Washington Center
10:09AM 37.1864 -76.6086 229° Southwest 408 470 23,800 -840 Descending Washington Center
10:10AM 37.1167 -76.7197 232° Southwest 408 470 22,400 -960 Descending Washington Center
10:11AM 37.0467 -76.8281 231° Southwest 408 470 22,000 -240 Descending Washington Center
10:12AM 36.9811 -76.9336 232° Southwest 403 464 22,000  Level Washington Center
10:13AM 36.9108 -77.0389 230° Southwest 403 464 22,000 -420 Level Washington Center
10:14AM 36.8408 -77.1464 231° Southwest 403 464 21,200 -1,020 Descending Washington Center
10:15AM 36.7725 -77.2514 231° Southwest 398 458 20,000 -660 Descending Washington Center
10:16AM 36.7044 -77.3536 230° Southwest 398 458 20,000  Level Washington Center
10:17AM 36.6403 -77.4556 232° Southwest 398 458 20,000  Level Washington Center
10:18AM 36.5719 -77.5575 230° Southwest 392 451 20,000  Level Washington Center
10:19AM 36.5033 -77.6617 231° Southwest 392 451 20,000 -720 Level Washington Center
10:20AM 36.4347 -77.7658 231° Southwest 392 451 18,700 -1,560 Descending Washington Center
10:21AM 36.3789 -77.8569 233° Southwest 387 445 16,900 -2,040 Descending Washington Center
10:21AM 36.3531 -77.8925 228° Southwest 372 428 16,200 -2,100 Descending Washington Center
10:22AM 36.3058 -77.9633 230° Southwest 356 410 14,800 -1,740 Descending Washington Center
10:23AM 36.2539 -78.0467 232° Southwest 370 426 13,200 -1,860 Descending Washington Center
10:24AM 36.1894 -78.1372 229° Southwest 337 388 11,200 -1,620 Descending Washington Center
10:25AM 36.1544 -78.2133 240° Southwest 302 348 10,000 -1,560 Descending Washington Center
10:26AM 36.1233 -78.3075 248° West 277 319 8,200 -1,920 Descending Washington Center
10:27AM 36.1006 -78.3864 250° West 267 307 6,300 -1,440 Descending Washington Center
10:28AM 36.0758 -78.4653 249° West 255 293 5,300 -1,440 Descending Washington Center
10:29AM 36.0531 -78.5361 248° West 244 281 3,400 -1,200 Descending Washington Center
10:30AM 36.0306 -78.6072 249° West 237 273 3,000 -300 Descending Washington Center
10:31AM 35.9831 -78.6672 226° Southwest 187 215 2,800 -540 Descending Washington Center
10:32AM 35.9486 -78.7094 225° Southwest 161 185 1,900 -840 Descending Washington Center
10:33AM 35.9206 -78.7467 227° Southwest 137 158 1,200 -720 Descending Washington Center
10:34AM 35.8925 -78.7789 223° Southwest 147 169 500 -720 Descending Washington Center